sensor_id;sensor_type;location;lat;lon;timestamp;P1;durP1;ratioP1;P2;durP2;ratioP2
781;SDS011;374;52.568;13.402;2022-07-01T00:01:58;13.23;;;12.03;;
781;SDS011;374;52.568;13.402;2022-07-01T00:04:23;13.53;;;12.33;;
781;SDS011;374;52.568;13.402;2022-07-01T00:06:52;20.63;;;13.83;;
781;SDS011;374;52.568;13.402;2022-07-01T00:09:21;13.23;;;12.13;;
781;SDS011;374;52.568;13.402;2022-07-01T00:11:46;12.33;;;11.33;;
781;SDS011;374;52.568;13.402;2022-07-01T00:14:12;13.97;;;12.70;;
781;SDS011;374;52.568;13.402;2022-07-01T00:16:38;13.90;;;12.70;;
781;SDS011;374;52.568;13.402;2022-07-01T00:19:03;13.43;;;12.23;;
781;SDS011;374;52.568;13.402;2022-07-01T00:21:30;14.07;;;12.87;;
781;SDS011;374;52.568;13.402;2022-07-01T00:23:56;15.03;;;13.53;;
781;SDS011;374;52.568;13.402;2022-07-01T00:26:21;14.30;;;13.00;;
781;SDS011;374;52.568;13.402;2022-07-01T00:28:47;15.00;;;13.50;;
781;SDS011;374;52.568;13.402;2022-07-01T00:31:12;14.50;;;13.30;;
781;SDS011;374;52.568;13.402;2022-07-01T00:33:38;16.50;;;14.80;;
781;SDS011;374;52.568;13.402;2022-07-01T00:36:03;18.00;;;16.43;;
781;SDS011;374;52.568;13.402;2022-07-01T00:38:29;16.13;;;14.53;;
781;SDS011;374;52.568;13.402;2022-07-01T00:40:55;16.73;;;15.30;;
781;SDS011;374;52.568;13.402;2022-07-01T00:43:21;16.93;;;15.50;;
781;SDS011;374;52.568;13.402;2022-07-01T00:45:49;16.97;;;15.43;;
781;SDS011;374;52.568;13.402;2022-07-01T00:48:15;17.73;;;16.00;;
781;SDS011;374;52.568;13.402;2022-07-01T00:50:41;17.43;;;15.83;;
781;SDS011;374;52.568;13.402;2022-07-01T00:53:07;18.77;;;17.03;;
781;SDS011;374;52.568;13.402;2022-07-01T00:55:33;17.53;;;15.93;;
781;SDS011;374;52.568;13.402;2022-07-01T00:57:58;18.80;;;16.97;;
781;SDS011;374;52.568;13.402;2022-07-01T01:00:24;18.70;;;17.10;;
781;SDS011;374;52.568;13.402;2022-07-01T01:02:51;18.13;;;16.43;;
781;SDS011;374;52.568;13.402;2022-07-01T01:05:17;20.10;;;18.23;;
781;SDS011;374;52.568;13.402;2022-07-01T01:07:43;19.53;;;17.73;;
781;SDS011;374;52.568;13.402;2022-07-01T01:10:08;19.23;;;17.47;;
781;SDS011;374;52.568;13.402;2022-07-01T01:12:34;19.93;;;17.93;;
781;SDS011;374;52.568;13.402;2022-07-01T01:15:00;20.10;;;18.10;;
781;SDS011;374;52.568;13.402;2022-07-01T01:17:26;19.87;;;17.97;;
781;SDS011;374;52.568;13.402;2022-07-01T01:19:52;18.23;;;16.43;;
781;SDS011;374;52.568;13.402;2022-07-01T01:22:21;18.63;;;16.90;;
781;SDS011;374;52.568;13.402;2022-07-01T01:24:46;19.50;;;17.57;;
781;SDS011;374;52.568;13.402;2022-07-01T01:27:12;19.53;;;17.70;;
781;SDS011;374;52.568;13.402;2022-07-01T01:29:38;18.37;;;16.43;;
781;SDS011;374;52.568;13.402;2022-07-01T01:32:05;20.23;;;18.20;;
781;SDS011;374;52.568;13.402;2022-07-01T01:34:35;18.80;;;17.10;;
781;SDS011;374;52.568;13.402;2022-07-01T01:37:02;18.53;;;16.93;;
781;SDS011;374;52.568;13.402;2022-07-01T01:39:29;18.37;;;16.60;;
781;SDS011;374;52.568;13.402;2022-07-01T01:41:55;20.53;;;18.63;;
781;SDS011;374;52.568;13.402;2022-07-01T01:44:20;19.67;;;17.87;;
781;SDS011;374;52.568;13.402;2022-07-01T01:46:46;19.17;;;17.37;;
781;SDS011;374;52.568;13.402;2022-07-01T01:49:11;20.30;;;18.30;;
781;SDS011;374;52.568;13.402;2022-07-01T01:51:37;20.97;;;19.07;;
781;SDS011;374;52.568;13.402;2022-07-01T01:54:03;19.77;;;17.90;;
781;SDS011;374;52.568;13.402;2022-07-01T01:56:29;20.90;;;18.90;;
781;SDS011;374;52.568;13.402;2022-07-01T01:58:55;19.50;;;17.70;;
781;SDS011;374;52.568;13.402;2022-07-01T02:01:21;20.57;;;18.57;;
781;SDS011;374;52.568;13.402;2022-07-01T02:03:48;22.00;;;20.00;;
781;SDS011;374;52.568;13.402;2022-07-01T02:06:14;20.47;;;18.47;;
781;SDS011;374;52.568;13.402;2022-07-01T02:08:41;21.57;;;19.30;;
781;SDS011;374;52.568;13.402;2022-07-01T02:11:07;22.03;;;19.63;;
781;SDS011;374;52.568;13.402;2022-07-01T02:13:33;21.53;;;19.33;;
781;SDS011;374;52.568;13.402;2022-07-01T02:15:59;25.17;;;20.83;;
781;SDS011;374;52.568;13.402;2022-07-01T02:18:25;23.77;;;21.27;;
781;SDS011;374;52.568;13.402;2022-07-01T02:20:50;22.57;;;20.37;;
781;SDS011;374;52.568;13.402;2022-07-01T02:23:16;24.47;;;22.10;;
781;SDS011;374;52.568;13.402;2022-07-01T02:25:42;24.17;;;21.87;;
781;SDS011;374;52.568;13.402;2022-07-01T02:28:08;22.50;;;20.10;;
781;SDS011;374;52.568;13.402;2022-07-01T02:30:33;24.37;;;21.77;;
781;SDS011;374;52.568;13.402;2022-07-01T02:33:03;22.53;;;20.20;;
781;SDS011;374;52.568;13.402;2022-07-01T02:35:30;22.80;;;20.63;;
781;SDS011;374;52.568;13.402;2022-07-01T02:37:56;22.73;;;20.40;;
781;SDS011;374;52.568;13.402;2022-07-01T02:40:22;21.37;;;19.20;;
781;SDS011;374;52.568;13.402;2022-07-01T02:42:47;22.70;;;20.37;;
781;SDS011;374;52.568;13.402;2022-07-01T02:45:12;24.60;;;22.03;;
781;SDS011;374;52.568;13.402;2022-07-01T02:47:39;24.40;;;22.00;;
781;SDS011;374;52.568;13.402;2022-07-01T02:50:06;23.73;;;21.30;;
781;SDS011;374;52.568;13.402;2022-07-01T02:52:34;25.20;;;22.60;;
781;SDS011;374;52.568;13.402;2022-07-01T02:55:03;25.00;;;22.47;;
781;SDS011;374;52.568;13.402;2022-07-01T02:57:30;24.00;;;21.50;;
781;SDS011;374;52.568;13.402;2022-07-01T02:59:56;23.90;;;21.37;;
781;SDS011;374;52.568;13.402;2022-07-01T03:02:22;22.73;;;20.40;;
781;SDS011;374;52.568;13.402;2022-07-01T03:04:48;23.70;;;21.40;;
781;SDS011;374;52.568;13.402;2022-07-01T03:07:15;22.47;;;20.33;;
781;SDS011;374;52.568;13.402;2022-07-01T03:09:41;23.63;;;21.43;;
781;SDS011;374;52.568;13.402;2022-07-01T03:12:08;23.80;;;21.37;;
781;SDS011;374;52.568;13.402;2022-07-01T03:14:50;22.27;;;20.17;;
781;SDS011;374;52.568;13.402;2022-07-01T03:17:16;22.20;;;20.10;;
781;SDS011;374;52.568;13.402;2022-07-01T03:19:42;23.07;;;20.67;;
781;SDS011;374;52.568;13.402;2022-07-01T03:22:07;24.63;;;22.03;;
781;SDS011;374;52.568;13.402;2022-07-01T03:24:32;24.47;;;22.17;;
781;SDS011;374;52.568;13.402;2022-07-01T03:26:58;24.80;;;22.40;;
781;SDS011;374;52.568;13.402;2022-07-01T03:29:24;26.30;;;23.60;;
781;SDS011;374;52.568;13.402;2022-07-01T03:31:49;25.17;;;22.57;;
781;SDS011;374;52.568;13.402;2022-07-01T03:34:15;24.60;;;22.30;;
781;SDS011;374;52.568;13.402;2022-07-01T03:36:40;27.17;;;24.43;;
781;SDS011;374;52.568;13.402;2022-07-01T03:39:06;25.07;;;22.40;;
781;SDS011;374;52.568;13.402;2022-07-01T03:41:31;26.50;;;23.80;;
781;SDS011;374;52.568;13.402;2022-07-01T03:43:57;23.50;;;21.20;;
781;SDS011;374;52.568;13.402;2022-07-01T03:46:22;25.17;;;22.80;;
781;SDS011;374;52.568;13.402;2022-07-01T03:48:48;25.43;;;23.03;;
781;SDS011;374;52.568;13.402;2022-07-01T03:51:13;27.73;;;22.67;;
781;SDS011;374;52.568;13.402;2022-07-01T03:53:38;22.70;;;20.50;;
781;SDS011;374;52.568;13.402;2022-07-01T03:56:22;26.03;;;23.37;;
781;SDS011;374;52.568;13.402;2022-07-01T03:58:48;25.30;;;22.70;;
781;SDS011;374;52.568;13.402;2022-07-01T04:01:13;24.13;;;21.73;;
781;SDS011;374;52.568;13.402;2022-07-01T04:03:39;26.07;;;23.40;;
781;SDS011;374;52.568;13.402;2022-07-01T04:06:05;25.03;;;22.57;;
781;SDS011;374;52.568;13.402;2022-07-01T04:08:30;24.10;;;21.60;;
781;SDS011;374;52.568;13.402;2022-07-01T04:10:56;24.97;;;22.47;;
781;SDS011;374;52.568;13.402;2022-07-01T04:13:22;24.60;;;22.30;;
781;SDS011;374;52.568;13.402;2022-07-01T04:15:47;24.67;;;22.23;;
781;SDS011;374;52.568;13.402;2022-07-01T04:18:13;25.23;;;22.83;;
781;SDS011;374;52.568;13.402;2022-07-01T04:20:39;25.93;;;23.13;;
781;SDS011;374;52.568;13.402;2022-07-01T04:23:04;26.50;;;22.57;;
781;SDS011;374;52.568;13.402;2022-07-01T04:25:29;26.07;;;23.47;;
781;SDS011;374;52.568;13.402;2022-07-01T04:27:55;24.10;;;21.77;;
781;SDS011;374;52.568;13.402;2022-07-01T04:30:22;25.97;;;23.40;;
781;SDS011;374;52.568;13.402;2022-07-01T04:32:47;24.93;;;22.63;;
781;SDS011;374;52.568;13.402;2022-07-01T04:35:13;25.63;;;23.03;;
781;SDS011;374;52.568;13.402;2022-07-01T04:37:39;22.67;;;20.40;;
781;SDS011;374;52.568;13.402;2022-07-01T04:40:05;24.10;;;21.90;;
781;SDS011;374;52.568;13.402;2022-07-01T04:42:31;25.60;;;23.10;;
781;SDS011;374;52.568;13.402;2022-07-01T04:44:57;24.70;;;22.10;;
781;SDS011;374;52.568;13.402;2022-07-01T04:47:22;24.97;;;22.57;;
781;SDS011;374;52.568;13.402;2022-07-01T04:49:48;24.97;;;22.37;;
781;SDS011;374;52.568;13.402;2022-07-01T04:52:14;24.10;;;21.77;;
781;SDS011;374;52.568;13.402;2022-07-01T04:54:40;26.10;;;23.50;;
781;SDS011;374;52.568;13.402;2022-07-01T04:57:06;24.23;;;21.83;;
781;SDS011;374;52.568;13.402;2022-07-01T04:59:31;28.20;;;23.83;;
781;SDS011;374;52.568;13.402;2022-07-01T05:01:57;25.10;;;22.77;;
781;SDS011;374;52.568;13.402;2022-07-01T05:04:24;24.07;;;21.87;;
781;SDS011;374;52.568;13.402;2022-07-01T05:06:52;25.70;;;22.83;;
781;SDS011;374;52.568;13.402;2022-07-01T05:09:18;23.43;;;21.00;;
781;SDS011;374;52.568;13.402;2022-07-01T05:11:44;24.70;;;22.40;;
781;SDS011;374;52.568;13.402;2022-07-01T05:14:09;24.20;;;21.83;;
781;SDS011;374;52.568;13.402;2022-07-01T05:16:35;26.80;;;24.30;;
781;SDS011;374;52.568;13.402;2022-07-01T05:19:01;26.00;;;23.43;;
781;SDS011;374;52.568;13.402;2022-07-01T05:21:46;24.60;;;22.17;;
781;SDS011;374;52.568;13.402;2022-07-01T05:24:20;25.43;;;22.73;;
781;SDS011;374;52.568;13.402;2022-07-01T05:26:46;24.03;;;21.53;;
781;SDS011;374;52.568;13.402;2022-07-01T05:29:11;24.33;;;21.90;;
781;SDS011;374;52.568;13.402;2022-07-01T05:31:37;27.70;;;23.10;;
781;SDS011;374;52.568;13.402;2022-07-01T05:34:02;25.53;;;22.87;;
781;SDS011;374;52.568;13.402;2022-07-01T05:36:28;26.27;;;20.80;;
781;SDS011;374;52.568;13.402;2022-07-01T05:38:53;25.90;;;21.60;;
781;SDS011;374;52.568;13.402;2022-07-01T05:41:19;22.93;;;20.63;;
781;SDS011;374;52.568;13.402;2022-07-01T05:43:44;22.60;;;20.23;;
781;SDS011;374;52.568;13.402;2022-07-01T05:46:10;22.97;;;20.40;;
781;SDS011;374;52.568;13.402;2022-07-01T05:48:36;24.43;;;22.03;;
781;SDS011;374;52.568;13.402;2022-07-01T05:51:01;23.27;;;21.00;;
781;SDS011;374;52.568;13.402;2022-07-01T05:53:27;23.30;;;20.90;;
781;SDS011;374;52.568;13.402;2022-07-01T05:55:53;23.80;;;21.40;;
781;SDS011;374;52.568;13.402;2022-07-01T05:58:18;22.63;;;20.40;;
781;SDS011;374;52.568;13.402;2022-07-01T06:00:43;20.93;;;18.57;;
781;SDS011;374;52.568;13.402;2022-07-01T06:03:09;21.87;;;19.73;;
781;SDS011;374;52.568;13.402;2022-07-01T06:05:36;28.30;;;20.30;;
781;SDS011;374;52.568;13.402;2022-07-01T06:08:02;25.27;;;20.00;;
781;SDS011;374;52.568;13.402;2022-07-01T06:10:28;35.80;;;23.87;;
781;SDS011;374;52.568;13.402;2022-07-01T06:12:54;25.43;;;20.80;;
781;SDS011;374;52.568;13.402;2022-07-01T06:15:19;23.40;;;21.10;;
781;SDS011;374;52.568;13.402;2022-07-01T06:17:45;21.47;;;19.30;;
781;SDS011;374;52.568;13.402;2022-07-01T06:20:10;23.10;;;20.80;;
781;SDS011;374;52.568;13.402;2022-07-01T06:22:36;22.53;;;20.57;;
781;SDS011;374;52.568;13.402;2022-07-01T06:25:02;20.33;;;18.40;;
781;SDS011;374;52.568;13.402;2022-07-01T06:27:28;24.13;;;21.47;;
781;SDS011;374;52.568;13.402;2022-07-01T06:29:53;22.03;;;19.83;;
781;SDS011;374;52.568;13.402;2022-07-01T06:32:19;23.27;;;20.83;;
781;SDS011;374;52.568;13.402;2022-07-01T06:34:45;22.10;;;20.10;;
781;SDS011;374;52.568;13.402;2022-07-01T06:37:10;23.90;;;21.77;;
781;SDS011;374;52.568;13.402;2022-07-01T06:39:36;24.13;;;21.70;;
781;SDS011;374;52.568;13.402;2022-07-01T06:42:01;23.00;;;20.57;;
781;SDS011;374;52.568;13.402;2022-07-01T06:44:27;21.40;;;19.50;;
781;SDS011;374;52.568;13.402;2022-07-01T06:46:53;21.77;;;19.67;;
781;SDS011;374;52.568;13.402;2022-07-01T06:49:18;23.10;;;20.80;;
781;SDS011;374;52.568;13.402;2022-07-01T06:51:44;22.83;;;20.63;;
781;SDS011;374;52.568;13.402;2022-07-01T06:54:09;22.73;;;20.67;;
781;SDS011;374;52.568;13.402;2022-07-01T06:56:35;24.80;;;22.40;;
781;SDS011;374;52.568;13.402;2022-07-01T06:59:00;22.70;;;20.33;;
781;SDS011;374;52.568;13.402;2022-07-01T07:01:26;24.40;;;22.10;;
781;SDS011;374;52.568;13.402;2022-07-01T07:03:52;24.73;;;22.50;;
781;SDS011;374;52.568;13.402;2022-07-01T07:06:18;23.17;;;21.07;;
781;SDS011;374;52.568;13.402;2022-07-01T07:08:43;23.80;;;21.20;;
781;SDS011;374;52.568;13.402;2022-07-01T07:11:09;24.07;;;21.77;;
781;SDS011;374;52.568;13.402;2022-07-01T07:13:35;23.60;;;21.50;;
781;SDS011;374;52.568;13.402;2022-07-01T07:16:01;24.70;;;22.30;;
781;SDS011;374;52.568;13.402;2022-07-01T07:18:27;23.30;;;21.13;;
781;SDS011;374;52.568;13.402;2022-07-01T07:20:53;24.30;;;22.00;;
781;SDS011;374;52.568;13.402;2022-07-01T07:23:18;24.13;;;21.73;;
781;SDS011;374;52.568;13.402;2022-07-01T07:25:43;22.73;;;20.63;;
781;SDS011;374;52.568;13.402;2022-07-01T07:28:09;21.30;;;19.30;;
781;SDS011;374;52.568;13.402;2022-07-01T07:30:35;22.50;;;20.50;;
781;SDS011;374;52.568;13.402;2022-07-01T07:33:00;21.63;;;19.83;;
781;SDS011;374;52.568;13.402;2022-07-01T07:35:26;21.80;;;19.80;;
781;SDS011;374;52.568;13.402;2022-07-01T07:37:52;20.17;;;18.37;;
781;SDS011;374;52.568;13.402;2022-07-01T07:40:17;19.27;;;17.57;;
781;SDS011;374;52.568;13.402;2022-07-01T07:42:44;20.20;;;18.50;;
781;SDS011;374;52.568;13.402;2022-07-01T07:45:10;18.97;;;17.07;;
781;SDS011;374;52.568;13.402;2022-07-01T07:47:37;19.50;;;17.80;;
781;SDS011;374;52.568;13.402;2022-07-01T07:50:03;20.23;;;18.33;;
781;SDS011;374;52.568;13.402;2022-07-01T07:52:29;17.87;;;16.47;;
781;SDS011;374;52.568;13.402;2022-07-01T07:54:55;17.60;;;15.97;;
781;SDS011;374;52.568;13.402;2022-07-01T07:57:20;19.13;;;17.33;;
781;SDS011;374;52.568;13.402;2022-07-01T07:59:46;18.23;;;16.53;;
781;SDS011;374;52.568;13.402;2022-07-01T08:02:12;18.40;;;16.77;;
781;SDS011;374;52.568;13.402;2022-07-01T08:04:38;16.97;;;15.60;;
781;SDS011;374;52.568;13.402;2022-07-01T08:07:04;17.07;;;15.27;;
781;SDS011;374;52.568;13.402;2022-07-01T08:09:30;17.23;;;15.73;;
781;SDS011;374;52.568;13.402;2022-07-01T08:11:59;15.23;;;14.13;;
781;SDS011;374;52.568;13.402;2022-07-01T08:14:27;16.60;;;15.10;;
781;SDS011;374;52.568;13.402;2022-07-01T08:16:53;17.33;;;15.87;;
781;SDS011;374;52.568;13.402;2022-07-01T08:19:19;17.03;;;15.43;;
781;SDS011;374;52.568;13.402;2022-07-01T08:21:44;17.80;;;16.40;;
781;SDS011;374;52.568;13.402;2022-07-01T08:24:10;16.63;;;15.27;;
781;SDS011;374;52.568;13.402;2022-07-01T08:26:35;16.60;;;15.17;;
781;SDS011;374;52.568;13.402;2022-07-01T08:29:01;16.03;;;14.67;;
781;SDS011;374;52.568;13.402;2022-07-01T08:31:27;15.90;;;14.60;;
781;SDS011;374;52.568;13.402;2022-07-01T08:33:52;16.13;;;14.77;;
781;SDS011;374;52.568;13.402;2022-07-01T08:36:18;16.67;;;15.17;;
781;SDS011;374;52.568;13.402;2022-07-01T08:38:43;15.87;;;14.43;;
781;SDS011;374;52.568;13.402;2022-07-01T08:41:09;16.50;;;15.00;;
781;SDS011;374;52.568;13.402;2022-07-01T08:43:34;16.53;;;15.13;;
781;SDS011;374;52.568;13.402;2022-07-01T08:46:00;17.03;;;15.53;;
781;SDS011;374;52.568;13.402;2022-07-01T08:48:30;17.00;;;15.43;;
781;SDS011;374;52.568;13.402;2022-07-01T08:50:55;16.40;;;15.00;;
781;SDS011;374;52.568;13.402;2022-07-01T08:53:21;16.20;;;14.77;;
781;SDS011;374;52.568;13.402;2022-07-01T08:55:47;15.23;;;13.93;;
781;SDS011;374;52.568;13.402;2022-07-01T08:58:31;16.10;;;14.63;;
781;SDS011;374;52.568;13.402;2022-07-01T09:01:16;15.93;;;14.73;;
781;SDS011;374;52.568;13.402;2022-07-01T09:03:45;16.37;;;15.03;;
781;SDS011;374;52.568;13.402;2022-07-01T09:06:13;15.60;;;14.40;;
781;SDS011;374;52.568;13.402;2022-07-01T09:08:41;17.33;;;15.93;;
781;SDS011;374;52.568;13.402;2022-07-01T09:11:10;16.17;;;14.97;;
781;SDS011;374;52.568;13.402;2022-07-01T09:13:37;17.40;;;16.00;;
781;SDS011;374;52.568;13.402;2022-07-01T09:16:05;16.67;;;15.33;;
781;SDS011;374;52.568;13.402;2022-07-01T09:18:39;15.97;;;14.57;;
781;SDS011;374;52.568;13.402;2022-07-01T09:21:10;16.00;;;14.80;;
781;SDS011;374;52.568;13.402;2022-07-01T09:23:41;16.93;;;15.70;;
781;SDS011;374;52.568;13.402;2022-07-01T09:26:07;17.57;;;16.17;;
781;SDS011;374;52.568;13.402;2022-07-01T09:28:51;17.07;;;15.73;;
781;SDS011;374;52.568;13.402;2022-07-01T09:31:19;18.90;;;17.37;;
781;SDS011;374;52.568;13.402;2022-07-01T09:33:45;20.90;;;19.10;;
781;SDS011;374;52.568;13.402;2022-07-01T09:36:14;17.40;;;15.90;;
781;SDS011;374;52.568;13.402;2022-07-01T09:38:44;12.33;;;11.40;;
781;SDS011;374;52.568;13.402;2022-07-01T09:41:12;12.37;;;9.37;;
781;SDS011;374;52.568;13.402;2022-07-01T09:43:38;8.07;;;7.47;;
781;SDS011;374;52.568;13.402;2022-07-01T09:46:08;7.23;;;6.40;;
781;SDS011;374;52.568;13.402;2022-07-01T09:51:00;5.77;;;5.27;;
781;SDS011;374;52.568;13.402;2022-07-01T09:53:27;4.70;;;4.40;;
781;SDS011;374;52.568;13.402;2022-07-01T09:55:53;7.60;;;4.80;;
781;SDS011;374;52.568;13.402;2022-07-01T09:58:19;6.53;;;3.90;;
781;SDS011;374;52.568;13.402;2022-07-01T10:00:45;5.20;;;3.60;;
781;SDS011;374;52.568;13.402;2022-07-01T10:03:11;6.20;;;3.33;;
781;SDS011;374;52.568;13.402;2022-07-01T10:05:42;5.20;;;3.50;;
781;SDS011;374;52.568;13.402;2022-07-01T10:08:18;4.00;;;3.43;;
781;SDS011;374;52.568;13.402;2022-07-01T10:13:16;7.40;;;5.80;;
781;SDS011;374;52.568;13.402;2022-07-01T10:15:43;4.63;;;3.73;;
781;SDS011;374;52.568;13.402;2022-07-01T10:18:23;4.00;;;3.70;;
781;SDS011;374;52.568;13.402;2022-07-01T10:20:50;3.50;;;3.13;;
781;SDS011;374;52.568;13.402;2022-07-01T10:23:17;3.10;;;2.90;;
781;SDS011;374;52.568;13.402;2022-07-01T10:25:46;3.80;;;3.50;;
781;SDS011;374;52.568;13.402;2022-07-01T10:28:17;3.90;;;3.50;;
781;SDS011;374;52.568;13.402;2022-07-01T10:30:57;4.27;;;3.90;;
781;SDS011;374;52.568;13.402;2022-07-01T10:33:35;5.47;;;4.40;;
781;SDS011;374;52.568;13.402;2022-07-01T10:41:28;4.00;;;3.70;;
781;SDS011;374;52.568;13.402;2022-07-01T10:43:56;4.70;;;4.30;;
781;SDS011;374;52.568;13.402;2022-07-01T10:46:44;5.53;;;4.37;;
781;SDS011;374;52.568;13.402;2022-07-01T10:51:51;8.43;;;4.80;;
781;SDS011;374;52.568;13.402;2022-07-01T10:59:41;3.47;;;3.17;;
781;SDS011;374;52.568;13.402;2022-07-01T11:02:11;4.10;;;3.73;;
781;SDS011;374;52.568;13.402;2022-07-01T11:04:41;4.57;;;3.77;;
781;SDS011;374;52.568;13.402;2022-07-01T11:07:07;3.83;;;2.67;;
781;SDS011;374;52.568;13.402;2022-07-01T11:09:33;5.13;;;2.80;;
781;SDS011;374;52.568;13.402;2022-07-01T11:11:59;2.47;;;2.27;;
781;SDS011;374;52.568;13.402;2022-07-01T11:14:25;2.43;;;2.23;;
781;SDS011;374;52.568;13.402;2022-07-01T11:16:51;3.23;;;2.00;;
781;SDS011;374;52.568;13.402;2022-07-01T11:19:20;2.00;;;1.90;;
781;SDS011;374;52.568;13.402;2022-07-01T11:21:49;1.60;;;1.50;;
781;SDS011;374;52.568;13.402;2022-07-01T11:24:19;1.90;;;1.80;;
781;SDS011;374;52.568;13.402;2022-07-01T11:26:45;1.63;;;1.53;;
781;SDS011;374;52.568;13.402;2022-07-01T11:29:14;1.80;;;1.70;;
781;SDS011;374;52.568;13.402;2022-07-01T11:31:49;2.07;;;1.40;;
781;SDS011;374;52.568;13.402;2022-07-01T11:34:15;1.87;;;1.60;;
781;SDS011;374;52.568;13.402;2022-07-01T11:36:42;3.50;;;1.73;;
781;SDS011;374;52.568;13.402;2022-07-01T11:39:28;3.20;;;1.60;;
781;SDS011;374;52.568;13.402;2022-07-01T11:41:58;1.67;;;1.50;;
781;SDS011;374;52.568;13.402;2022-07-01T11:44:33;1.80;;;1.70;;
781;SDS011;374;52.568;13.402;2022-07-01T11:47:11;1.67;;;1.57;;
781;SDS011;374;52.568;13.402;2022-07-01T11:49:47;1.67;;;1.57;;
781;SDS011;374;52.568;13.402;2022-07-01T11:52:13;3.57;;;2.10;;
781;SDS011;374;52.568;13.402;2022-07-01T11:54:40;3.97;;;1.97;;
781;SDS011;374;52.568;13.402;2022-07-01T11:57:12;1.97;;;1.77;;
781;SDS011;374;52.568;13.402;2022-07-01T11:59:41;1.67;;;1.57;;
781;SDS011;374;52.568;13.402;2022-07-01T12:02:07;2.00;;;1.80;;
781;SDS011;374;52.568;13.402;2022-07-01T12:04:34;1.80;;;1.70;;
781;SDS011;374;52.568;13.402;2022-07-01T12:07:00;1.60;;;1.50;;
781;SDS011;374;52.568;13.402;2022-07-01T12:09:26;1.93;;;1.50;;
781;SDS011;374;52.568;13.402;2022-07-01T12:11:52;1.70;;;1.60;;
781;SDS011;374;52.568;13.402;2022-07-01T12:14:19;2.23;;;1.80;;
781;SDS011;374;52.568;13.402;2022-07-01T12:16:46;1.77;;;1.67;;
781;SDS011;374;52.568;13.402;2022-07-01T12:19:12;2.50;;;2.30;;
781;SDS011;374;52.568;13.402;2022-07-01T12:21:54;2.13;;;2.03;;
781;SDS011;374;52.568;13.402;2022-07-01T12:24:23;2.93;;;2.80;;
781;SDS011;374;52.568;13.402;2022-07-01T12:26:50;3.10;;;2.77;;
781;SDS011;374;52.568;13.402;2022-07-01T12:29:27;3.93;;;3.63;;
781;SDS011;374;52.568;13.402;2022-07-01T12:31:58;4.20;;;3.90;;
781;SDS011;374;52.568;13.402;2022-07-01T12:34:44;5.30;;;4.90;;
781;SDS011;374;52.568;13.402;2022-07-01T12:37:12;6.27;;;5.77;;
781;SDS011;374;52.568;13.402;2022-07-01T12:39:50;5.13;;;4.77;;
781;SDS011;374;52.568;13.402;2022-07-01T12:42:27;5.40;;;4.97;;
781;SDS011;374;52.568;13.402;2022-07-01T12:44:59;4.93;;;4.53;;
781;SDS011;374;52.568;13.402;2022-07-01T12:47:27;4.47;;;4.07;;
781;SDS011;374;52.568;13.402;2022-07-01T12:52:38;5.10;;;4.70;;
781;SDS011;374;52.568;13.402;2022-07-01T12:55:13;4.90;;;4.50;;
781;SDS011;374;52.568;13.402;2022-07-01T12:57:39;4.63;;;4.30;;
781;SDS011;374;52.568;13.402;2022-07-01T13:00:05;7.10;;;4.73;;
781;SDS011;374;52.568;13.402;2022-07-01T13:02:31;4.20;;;3.90;;
781;SDS011;374;52.568;13.402;2022-07-01T13:04:56;5.07;;;4.77;;
781;SDS011;374;52.568;13.402;2022-07-01T13:07:22;4.63;;;4.33;;
781;SDS011;374;52.568;13.402;2022-07-01T13:09:47;4.83;;;4.53;;
781;SDS011;374;52.568;13.402;2022-07-01T13:12:13;5.20;;;4.80;;
781;SDS011;374;52.568;13.402;2022-07-01T13:14:38;4.60;;;4.30;;
781;SDS011;374;52.568;13.402;2022-07-01T13:17:04;4.47;;;4.10;;
781;SDS011;374;52.568;13.402;2022-07-01T13:19:29;4.50;;;4.20;;
781;SDS011;374;52.568;13.402;2022-07-01T13:21:55;3.90;;;3.60;;
781;SDS011;374;52.568;13.402;2022-07-01T13:24:20;4.50;;;4.10;;
781;SDS011;374;52.568;13.402;2022-07-01T13:26:47;4.50;;;4.20;;
781;SDS011;374;52.568;13.402;2022-07-01T13:29:12;5.20;;;4.80;;
781;SDS011;374;52.568;13.402;2022-07-01T13:31:38;4.70;;;4.40;;
781;SDS011;374;52.568;13.402;2022-07-01T13:34:03;3.73;;;3.53;;
781;SDS011;374;52.568;13.402;2022-07-01T13:36:29;4.00;;;3.70;;
781;SDS011;374;52.568;13.402;2022-07-01T13:38:55;4.83;;;4.47;;
781;SDS011;374;52.568;13.402;2022-07-01T13:41:20;3.90;;;3.67;;
781;SDS011;374;52.568;13.402;2022-07-01T13:43:46;4.83;;;4.53;;
781;SDS011;374;52.568;13.402;2022-07-01T13:46:12;3.70;;;3.40;;
781;SDS011;374;52.568;13.402;2022-07-01T13:48:37;4.23;;;4.03;;
781;SDS011;374;52.568;13.402;2022-07-01T13:51:03;3.93;;;3.63;;
781;SDS011;374;52.568;13.402;2022-07-01T13:53:28;4.00;;;3.80;;
781;SDS011;374;52.568;13.402;2022-07-01T13:55:54;3.43;;;3.23;;
781;SDS011;374;52.568;13.402;2022-07-01T13:58:19;4.87;;;3.80;;
781;SDS011;374;52.568;13.402;2022-07-01T14:00:45;3.70;;;3.50;;
781;SDS011;374;52.568;13.402;2022-07-01T14:03:10;3.70;;;3.43;;
781;SDS011;374;52.568;13.402;2022-07-01T14:05:36;3.90;;;3.50;;
781;SDS011;374;52.568;13.402;2022-07-01T14:08:02;3.77;;;3.47;;
781;SDS011;374;52.568;13.402;2022-07-01T14:10:29;3.63;;;3.33;;
781;SDS011;374;52.568;13.402;2022-07-01T14:12:55;5.30;;;4.10;;
781;SDS011;374;52.568;13.402;2022-07-01T14:15:20;3.23;;;3.03;;
781;SDS011;374;52.568;13.402;2022-07-01T14:17:46;4.17;;;3.87;;
781;SDS011;374;52.568;13.402;2022-07-01T14:20:12;4.30;;;4.00;;
781;SDS011;374;52.568;13.402;2022-07-01T14:22:37;3.90;;;3.60;;
781;SDS011;374;52.568;13.402;2022-07-01T14:25:03;3.73;;;3.53;;
781;SDS011;374;52.568;13.402;2022-07-01T14:27:29;4.27;;;3.30;;
781;SDS011;374;52.568;13.402;2022-07-01T14:29:55;3.97;;;3.73;;
781;SDS011;374;52.568;13.402;2022-07-01T14:32:20;4.07;;;3.77;;
781;SDS011;374;52.568;13.402;2022-07-01T14:34:51;3.30;;;3.07;;
781;SDS011;374;52.568;13.402;2022-07-01T14:37:17;4.17;;;3.87;;
781;SDS011;374;52.568;13.402;2022-07-01T14:39:42;4.00;;;3.80;;
781;SDS011;374;52.568;13.402;2022-07-01T14:42:08;3.60;;;3.30;;
781;SDS011;374;52.568;13.402;2022-07-01T14:44:33;3.93;;;3.57;;
781;SDS011;374;52.568;13.402;2022-07-01T14:46:59;4.17;;;3.97;;
781;SDS011;374;52.568;13.402;2022-07-01T14:49:24;3.73;;;3.43;;
781;SDS011;374;52.568;13.402;2022-07-01T14:51:50;3.90;;;3.70;;
781;SDS011;374;52.568;13.402;2022-07-01T14:54:16;3.97;;;3.67;;
781;SDS011;374;52.568;13.402;2022-07-01T14:56:41;3.10;;;2.97;;
781;SDS011;374;52.568;13.402;2022-07-01T14:59:07;3.60;;;3.40;;
781;SDS011;374;52.568;13.402;2022-07-01T15:01:33;3.73;;;3.40;;
781;SDS011;374;52.568;13.402;2022-07-01T15:03:58;3.43;;;3.23;;
781;SDS011;374;52.568;13.402;2022-07-01T15:06:24;3.90;;;3.60;;
781;SDS011;374;52.568;13.402;2022-07-01T15:08:49;4.27;;;4.07;;
781;SDS011;374;52.568;13.402;2022-07-01T15:11:15;3.73;;;3.43;;
781;SDS011;374;52.568;13.402;2022-07-01T15:13:40;5.60;;;4.20;;
781;SDS011;374;52.568;13.402;2022-07-01T15:16:06;3.50;;;3.10;;
781;SDS011;374;52.568;13.402;2022-07-01T15:18:31;4.00;;;3.80;;
781;SDS011;374;52.568;13.402;2022-07-01T15:20:58;4.43;;;4.13;;
781;SDS011;374;52.568;13.402;2022-07-01T15:23:24;4.00;;;3.70;;
781;SDS011;374;52.568;13.402;2022-07-01T15:25:51;4.27;;;3.97;;
781;SDS011;374;52.568;13.402;2022-07-01T15:28:16;4.57;;;4.27;;
781;SDS011;374;52.568;13.402;2022-07-01T15:30:42;4.30;;;4.00;;
781;SDS011;374;52.568;13.402;2022-07-01T15:33:07;4.80;;;4.30;;